createdAt,value
2022-10-04T00:00:31.272Z,83.57
2022-10-04T00:03:33.060Z,83.08
2022-10-04T00:06:01.823Z,83.51
2022-10-04T00:09:02.663Z,83.27
2022-10-04T00:11:33.677Z,83.05
2022-10-04T00:14:07.205Z,82.97
2022-10-04T00:16:38.494Z,82.68
2022-10-04T00:19:16.423Z,82.97
2022-10-04T00:21:54.125Z,82.74
2022-10-04T00:24:30.621Z,82.54
2022-10-04T00:27:18.257Z,82.37
2022-10-04T00:30:01.997Z,82.65
2022-10-04T00:32:51.162Z,82.34
2022-10-04T00:35:25.966Z,82.33
2022-10-04T00:38:14.647Z,82.13
2022-10-04T00:40:54.776Z,83.58
2022-10-04T00:43:29.844Z,83.60
2022-10-04T00:46:19.083Z,83.57
2022-10-04T00:48:53.221Z,86.02
2022-10-04T00:51:39.280Z,85.08
2022-10-04T00:54:24.360Z,84.14
2022-10-04T00:56:56.282Z,84.08
2022-10-04T00:59:40.603Z,84.36
2022-10-04T01:02:18.106Z,84.88
2022-10-04T01:04:51.602Z,84.89
2022-10-04T01:07:23.870Z,84.77
2022-10-04T01:09:57.642Z,84.47
2022-10-04T01:12:28.919Z,84.45
2022-10-04T01:15:03.340Z,84.96
2022-10-04T01:17:31.821Z,84.70
2022-10-04T01:20:00.304Z,84.15
2022-10-04T01:22:42.100Z,84.04
2022-10-04T01:25:10.785Z,84.83
2022-10-04T01:27:42.241Z,84.35
2022-10-04T01:30:13.656Z,84.38
2022-10-04T01:32:43.588Z,84.39
2022-10-04T01:35:14.747Z,84.50
2022-10-04T01:37:43.244Z,84.48
2022-10-04T01:40:11.816Z,84.70
2022-10-04T01:42:40.474Z,84.90
2022-10-04T01:45:28.542Z,85.08
2022-10-04T01:48:00.406Z,85.54
2022-10-04T01:50:40.455Z,85.48
2022-10-04T01:53:08.941Z,85.47
2022-10-04T01:55:38.116Z,85.32
2022-10-04T01:58:11.228Z,85.26
2022-10-04T02:00:44.110Z,85.02
2022-10-04T02:03:18.023Z,85.10
2022-10-04T02:05:54.695Z,85.94
2022-10-04T02:08:26.333Z,85.82
2022-10-04T02:10:55.140Z,85.45
2022-10-04T02:13:27.997Z,85.66
2022-10-04T02:15:57.565Z,85.48
2022-10-04T02:18:27.446Z,85.66
2022-10-04T02:20:56.522Z,85.36
2022-10-04T02:23:25.715Z,85.10
2022-10-04T02:25:53.916Z,84.67
2022-10-04T02:28:22.341Z,84.84
2022-10-04T02:31:12.672Z,84.71
2022-10-04T02:33:45.473Z,85.71
2022-10-04T02:36:14.903Z,85.34
2022-10-04T02:39:09.573Z,86.07
2022-10-04T02:41:47.479Z,86.68
2022-10-04T02:44:15.651Z,85.91
2022-10-04T02:47:03.283Z,86.37
2022-10-04T02:49:45.177Z,86.09
2022-10-04T02:52:23.009Z,85.98
2022-10-04T02:55:10.790Z,86.50
2022-10-04T02:57:42.249Z,86.59
2022-10-04T03:00:16.686Z,86.62
2022-10-04T03:03:04.093Z,87.32
2022-10-04T03:05:33.100Z,87.48
2022-10-04T03:08:02.100Z,88.68
2022-10-04T03:10:30.582Z,88.17
2022-10-04T03:12:59.474Z,89.50
2022-10-04T03:15:27.956Z,90.67
2022-10-04T03:17:56.948Z,91.19
2022-10-04T03:20:25.426Z,91.16
2022-10-04T03:22:55.959Z,91.44
2022-10-04T03:25:28.950Z,91.49
2022-10-04T03:28:01.156Z,90.91
2022-10-04T03:30:32.248Z,91.11
2022-10-04T03:33:00.747Z,91.00
2022-10-04T03:35:37.796Z,90.86
2022-10-04T03:38:09.193Z,91.99
2022-10-04T03:40:38.270Z,92.42
2022-10-04T03:43:07.239Z,92.98
2022-10-04T03:45:35.866Z,93.37
2022-10-04T03:48:05.864Z,93.34
2022-10-04T03:50:36.038Z,93.22
2022-10-04T03:53:16.449Z,93.00
2022-10-04T03:55:46.231Z,92.77
2022-10-04T03:58:16.280Z,92.88
2022-10-04T04:00:54.274Z,93.31
2022-10-04T04:03:23.178Z,93.21
2022-10-04T04:05:53.494Z,92.91
2022-10-04T04:08:30.482Z,92.92
2022-10-04T04:11:00.356Z,92.92
2022-10-04T04:13:42.577Z,92.08
2022-10-04T04:16:11.733Z,92.03
2022-10-04T04:18:43.640Z,91.79
2022-10-04T04:21:15.775Z,92.19
2022-10-04T04:23:49.091Z,92.11
2022-10-04T04:26:27.560Z,92.58
2022-10-04T04:28:59.277Z,92.59
2022-10-04T04:31:34.226Z,93.16
2022-10-04T04:34:04.229Z,92.68
2022-10-04T04:36:39.638Z,92.96
2022-10-04T04:39:32.545Z,93.66
2022-10-04T04:42:03.076Z,94.09
2022-10-04T04:44:31.353Z,93.84
2022-10-04T04:47:00.941Z,93.85
2022-10-04T04:49:31.428Z,93.83
2022-10-04T04:52:00.307Z,93.56
2022-10-04T04:54:28.967Z,93.15
2022-10-04T04:56:57.629Z,93.20
2022-10-04T04:59:27.981Z,92.87
2022-10-04T05:01:56.452Z,93.02
2022-10-04T05:04:26.581Z,92.88
2022-10-04T05:07:06.648Z,92.79
2022-10-04T05:09:36.754Z,92.45
2022-10-04T05:12:08.420Z,91.85
2022-10-04T05:14:42.117Z,91.39
2022-10-04T05:17:17.676Z,90.98
2022-10-04T05:19:46.655Z,90.59
2022-10-04T05:22:19.725Z,90.39
2022-10-04T05:24:51.712Z,90.03
2022-10-04T05:27:36.166Z,89.36
2022-10-04T05:30:08.027Z,89.03
2022-10-04T05:32:48.987Z,88.34
2022-10-04T05:35:18.920Z,87.95
2022-10-04T05:37:59.893Z,87.53
2022-10-04T05:40:34.446Z,86.63
2022-10-04T05:43:03.512Z,85.73
2022-10-04T05:45:32.071Z,84.98
2022-10-04T05:48:08.139Z,84.10
2022-10-04T05:50:41.791Z,84.05
2022-10-04T05:53:29.292Z,82.44
2022-10-04T05:56:04.452Z,81.85
2022-10-04T05:58:38.850Z,81.92
2022-10-04T06:01:19.348Z,80.10
2022-10-04T06:03:56.910Z,78.66
2022-10-04T06:06:25.485Z,79.51
2022-10-04T06:09:03.232Z,78.23
2022-10-04T06:11:43.574Z,78.06
2022-10-04T06:14:24.264Z,77.67
2022-10-04T06:16:55.833Z,76.64
2022-10-04T06:19:43.508Z,74.78
2022-10-04T06:22:14.960Z,74.85
2022-10-04T06:24:49.376Z,74.20
2022-10-04T06:27:17.757Z,73.37
2022-10-04T06:30:04.983Z,72.67
2022-10-04T06:32:39.481Z,70.71
2022-10-04T06:35:27.957Z,71.46
2022-10-04T06:38:11.882Z,71.79
2022-10-04T06:40:43.252Z,71.93
2022-10-04T06:43:27.400Z,71.43
2022-10-04T06:46:03.783Z,71.62
2022-10-04T06:48:44.436Z,70.81
2022-10-04T06:51:32.478Z,69.82
2022-10-04T06:54:20.810Z,68.81
2022-10-04T06:57:08.765Z,69.15
2022-10-04T06:59:37.534Z,68.94
2022-10-04T07:02:15.083Z,67.11
2022-10-04T07:05:08.567Z,64.98
2022-10-04T07:07:38.892Z,66.32
2022-10-04T07:10:17.228Z,64.85
2022-10-04T07:12:50.654Z,63.80
2022-10-04T07:15:29.528Z,63.01
2022-10-04T07:18:00.009Z,60.26
2022-10-04T07:20:31.768Z,59.42
2022-10-04T07:23:03.323Z,60.54
2022-10-04T07:25:36.753Z,57.40
2022-10-04T07:28:26.837Z,57.37
2022-10-04T07:30:58.446Z,56.25
2022-10-04T07:33:28.997Z,55.54
2022-10-04T07:36:06.696Z,56.53
2022-10-04T07:38:38.866Z,56.77
2022-10-04T07:41:34.254Z,54.63
2022-10-04T07:44:13.291Z,54.80
2022-10-04T07:46:47.626Z,53.89
2022-10-04T07:49:17.849Z,51.93
2022-10-04T07:51:46.410Z,53.19
2022-10-04T07:54:37.945Z,52.57
2022-10-04T07:57:18.933Z,51.48
2022-10-04T07:59:52.113Z,51.58
2022-10-04T08:02:31.031Z,51.28
2022-10-04T08:05:08.548Z,50.36
2022-10-04T08:07:43.645Z,49.96
2022-10-04T08:10:35.823Z,50.88
2022-10-04T08:13:22.943Z,51.21
2022-10-04T08:15:52.321Z,51.48
2022-10-04T08:18:29.842Z,50.77
2022-10-04T08:21:01.499Z,50.54
2022-10-04T08:23:29.674Z,50.91
2022-10-04T08:26:13.197Z,50.79
2022-10-04T08:29:09.422Z,50.34
2022-10-04T08:31:39.766Z,51.75
2022-10-04T08:34:08.556Z,52.00
2022-10-04T08:36:46.421Z,52.08
2022-10-04T08:39:27.332Z,52.89
2022-10-04T08:42:12.784Z,51.27
2022-10-04T08:45:17.342Z,51.99
2022-10-04T08:48:19.811Z,52.01
2022-10-04T08:51:06.406Z,52.73
2022-10-04T08:53:47.301Z,52.43
2022-10-04T08:56:26.126Z,52.30
2022-10-04T08:58:55.017Z,52.02
2022-10-04T09:01:29.694Z,52.17
2022-10-04T09:04:13.488Z,51.93
2022-10-04T09:06:54.670Z,49.77
2022-10-04T09:09:35.541Z,49.86
2022-10-04T09:12:20.818Z,48.32
2022-10-04T09:14:58.311Z,47.09
2022-10-04T09:17:30.071Z,48.13
2022-10-04T09:20:36.682Z,46.66
2022-10-04T09:23:04.056Z,47.80
2022-10-04T09:25:48.153Z,45.62
2022-10-04T09:28:24.703Z,45.90
2022-10-04T09:31:12.716Z,45.03
2022-10-04T09:33:59.885Z,45.75
2022-10-04T09:36:31.235Z,46.17
2022-10-04T09:39:29.091Z,45.63
2022-10-04T09:41:54.180Z,45.61
2022-10-04T09:44:46.261Z,44.11
2022-10-04T09:47:44.291Z,42.41
2022-10-04T09:50:40.146Z,43.05
2022-10-04T09:53:18.048Z,43.67
2022-10-04T09:55:58.724Z,43.58
2022-10-04T09:58:29.479Z,42.27
2022-10-04T10:00:58.183Z,42.31
2022-10-04T10:03:26.621Z,41.25
2022-10-04T10:05:55.106Z,41.00
2022-10-04T10:08:28.446Z,40.48
2022-10-04T10:11:27.911Z,39.67
2022-10-04T10:13:59.158Z,40.20
2022-10-04T10:16:47.098Z,39.16
2022-10-04T10:19:44.969Z,38.84
2022-10-04T10:22:16.318Z,38.50
2022-10-04T10:24:54.830Z,39.27
2022-10-04T10:27:38.681Z,37.35
2022-10-04T10:30:16.991Z,34.99
2022-10-04T10:32:45.577Z,36.09
2022-10-04T10:35:32.959Z,35.52
2022-10-04T10:38:28.605Z,37.78
2022-10-04T10:41:09.068Z,36.26
2022-10-04T10:43:42.008Z,34.81
2022-10-04T10:46:25.655Z,34.14
2022-10-04T10:49:13.040Z,36.17
2022-10-04T10:51:49.356Z,35.46
2022-10-04T10:54:26.696Z,33.46
2022-10-04T10:57:02.077Z,34.66
2022-10-04T10:59:50.899Z,33.57
2022-10-04T11:02:49.238Z,33.82
2022-10-04T11:05:37.634Z,33.12
2022-10-04T11:08:28.028Z,31.58
2022-10-04T11:10:56.716Z,30.50
2022-10-04T11:13:34.206Z,29.24
2022-10-04T11:16:08.395Z,28.36
2022-10-04T11:18:55.547Z,29.80
2022-10-04T11:21:35.602Z,28.52
2022-10-04T11:24:04.029Z,30.63
2022-10-04T11:26:38.507Z,29.60
2022-10-04T11:29:10.776Z,30.73
2022-10-04T11:31:46.167Z,30.43
2022-10-04T11:34:18.086Z,29.27
2022-10-04T11:36:57.255Z,28.68
2022-10-04T11:39:45.137Z,29.35
2022-10-04T11:42:22.959Z,28.93
2022-10-04T11:45:33.944Z,29.59
2022-10-04T11:48:11.555Z,30.74
2022-10-04T11:50:42.782Z,29.60
2022-10-04T11:53:26.112Z,29.43
2022-10-04T11:56:04.712Z,29.41
2022-10-04T11:58:51.852Z,28.96
2022-10-04T12:01:38.897Z,30.23
2022-10-04T12:04:18.157Z,29.81
2022-10-04T12:07:22.941Z,30.03
2022-10-04T12:10:01.230Z,29.16
2022-10-04T12:12:47.457Z,28.97
2022-10-04T12:15:16.128Z,28.21
2022-10-04T12:17:47.796Z,28.43
2022-10-04T12:20:29.282Z,27.35
2022-10-04T12:22:57.662Z,27.20
2022-10-04T12:25:35.669Z,26.71
2022-10-04T12:28:16.404Z,26.11
2022-10-04T12:31:05.109Z,25.51
2022-10-04T12:33:56.720Z,24.97
2022-10-04T12:36:31.143Z,23.50
2022-10-04T12:38:59.524Z,24.02
2022-10-04T12:41:37.222Z,21.71
2022-10-04T12:44:18.403Z,21.78
2022-10-04T12:46:51.903Z,22.41
2022-10-04T12:49:26.324Z,22.66
2022-10-04T12:52:00.747Z,23.37
2022-10-04T12:54:35.474Z,23.58
2022-10-04T12:57:06.826Z,23.60
2022-10-04T12:59:41.351Z,24.45
2022-10-04T13:02:28.550Z,24.13
2022-10-04T13:05:03.916Z,23.54
2022-10-04T13:07:52.059Z,23.42
2022-10-04T13:10:24.562Z,23.01
2022-10-04T13:13:29.680Z,22.74
2022-10-04T13:19:00.026Z,21.67
2022-10-04T13:21:37.520Z,23.24
2022-10-04T13:24:20.033Z,24.56
2022-10-04T13:26:58.549Z,26.14
2022-10-04T13:29:37.785Z,27.63
2022-10-04T13:32:14.717Z,27.91
2022-10-04T13:34:47.448Z,28.04
2022-10-04T13:37:35.976Z,27.94
2022-10-04T13:40:07.350Z,26.36
2022-10-04T13:42:56.111Z,25.71
2022-10-04T13:45:27.290Z,24.00
2022-10-04T13:48:19.446Z,23.00
2022-10-04T13:50:50.309Z,22.13
2022-10-04T13:53:37.353Z,20.26
2022-10-04T13:56:24.879Z,20.33
2022-10-04T13:59:01.553Z,19.90
2022-10-04T14:01:49.132Z,18.72
2022-10-04T14:04:36.509Z,18.93
2022-10-04T14:07:05.093Z,19.84
2022-10-04T14:09:52.289Z,19.41
2022-10-04T14:12:40.369Z,19.81
2022-10-04T14:15:27.477Z,19.77
2022-10-04T14:18:05.424Z,19.76
2022-10-04T14:20:45.998Z,20.05
2022-10-04T14:23:34.135Z,18.57
2022-10-04T14:26:19.572Z,18.98
2022-10-04T14:29:07.716Z,19.04
2022-10-04T14:31:50.065Z,18.58
2022-10-04T14:34:25.879Z,18.36
2022-10-04T14:37:04.099Z,19.00
2022-10-04T14:39:32.703Z,18.80
2022-10-04T14:42:00.952Z,18.10
2022-10-04T14:44:29.434Z,18.18
2022-10-04T14:47:16.730Z,18.26
2022-10-04T14:49:57.919Z,19.09
2022-10-04T14:52:38.307Z,19.63
2022-10-04T14:55:13.645Z,20.28
2022-10-04T14:57:55.234Z,20.24
2022-10-04T15:00:24.843Z,20.83
2022-10-04T15:03:05.048Z,21.93
2022-10-04T15:05:45.770Z,22.94
2022-10-04T15:08:26.031Z,24.25
2022-10-04T15:11:13.150Z,24.98
2022-10-04T15:13:51.818Z,26.37
2022-10-04T15:16:31.543Z,27.70
2022-10-04T15:19:09.113Z,28.45
2022-10-04T15:21:44.124Z,29.10
2022-10-04T15:24:18.651Z,29.04
2022-10-04T15:27:04.066Z,29.28
2022-10-04T15:29:52.033Z,29.82
2022-10-04T15:32:20.483Z,31.07
2022-10-04T15:35:11.892Z,31.61
2022-10-04T15:37:58.503Z,32.90
2022-10-04T15:40:41.626Z,33.69
2022-10-04T15:43:10.004Z,35.05
2022-10-04T15:46:03.088Z,36.42
2022-10-04T15:48:55.611Z,37.68
2022-10-04T15:51:41.852Z,38.75
2022-10-04T15:54:13.978Z,39.63
2022-10-04T15:56:51.247Z,40.44
2022-10-04T15:59:25.381Z,40.88
2022-10-04T16:02:12.737Z,42.48
2022-10-04T16:04:44.226Z,42.86
2022-10-04T16:07:22.167Z,44.48
2022-10-04T16:10:07.208Z,45.10
2022-10-04T16:12:59.372Z,46.09
2022-10-04T16:15:33.742Z,47.25
2022-10-04T16:18:17.283Z,47.71
2022-10-04T16:20:49.602Z,47.72
2022-10-04T16:23:28.234Z,47.59
2022-10-04T16:26:02.522Z,47.74
2022-10-04T16:28:44.236Z,48.55
2022-10-04T16:31:20.281Z,48.93
2022-10-04T16:34:08.277Z,49.22
2022-10-04T16:36:50.674Z,49.21
2022-10-04T16:39:57.216Z,49.35
2022-10-04T16:42:34.820Z,49.22
2022-10-04T16:45:06.160Z,48.31
2022-10-04T16:47:39.788Z,49.44
2022-10-04T16:50:10.395Z,50.77
2022-10-04T16:52:50.639Z,51.71
2022-10-04T16:55:20.474Z,52.28
2022-10-04T16:58:08.304Z,53.14
2022-10-04T17:00:38.689Z,53.59
2022-10-04T17:03:11.310Z,54.59
2022-10-04T17:05:49.194Z,54.42
2022-10-04T17:08:17.424Z,54.96
2022-10-04T17:10:48.839Z,55.74
2022-10-04T17:13:17.320Z,56.91
2022-10-04T17:16:01.508Z,55.73
2022-10-04T17:18:45.156Z,56.39
2022-10-04T17:21:28.744Z,57.61
2022-10-04T17:24:11.974Z,58.20
2022-10-04T17:26:43.799Z,56.96
2022-10-04T17:29:29.009Z,56.76
2022-10-04T17:31:59.068Z,57.39
2022-10-04T17:34:47.784Z,57.09
2022-10-04T17:37:34.908Z,57.28
2022-10-04T17:40:12.413Z,56.62
2022-10-04T17:42:46.716Z,57.19
2022-10-04T17:45:24.242Z,57.85
2022-10-04T17:48:20.156Z,57.16
2022-10-04T17:51:17.598Z,57.29
2022-10-04T17:54:08.299Z,58.09
2022-10-04T17:57:03.507Z,57.85
2022-10-04T17:59:39.671Z,58.26
2022-10-04T18:02:31.540Z,57.58
2022-10-04T18:05:08.592Z,57.90
2022-10-04T18:07:44.487Z,58.50
2022-10-04T18:10:27.671Z,58.13
2022-10-04T18:13:06.192Z,57.73
2022-10-04T18:15:43.963Z,58.12
2022-10-04T18:18:12.879Z,58.49
2022-10-04T18:20:59.000Z,58.78
2022-10-04T18:23:28.585Z,59.18
2022-10-04T18:26:01.774Z,58.10
2022-10-04T18:28:34.757Z,58.25
2022-10-04T18:31:22.114Z,59.77
2022-10-04T18:33:54.377Z,59.15
2022-10-04T18:36:24.989Z,59.60
2022-10-04T18:39:23.096Z,59.19
2022-10-04T18:41:57.075Z,59.77
2022-10-04T18:44:30.528Z,60.03
2022-10-04T18:47:03.559Z,60.49
2022-10-04T18:49:45.461Z,60.15
2022-10-04T18:52:14.045Z,60.52
2022-10-04T18:54:55.123Z,60.19
2022-10-04T18:57:58.634Z,59.91
2022-10-04T19:00:52.562Z,60.06
2022-10-04T19:03:20.987Z,60.36
2022-10-04T19:06:21.825Z,60.03
2022-10-04T19:09:18.162Z,60.00
2022-10-04T19:12:05.486Z,60.99
2022-10-04T19:14:56.907Z,61.20
2022-10-04T19:17:25.495Z,60.30
2022-10-04T19:20:15.163Z,61.01
2022-10-04T19:23:08.727Z,61.06
2022-10-04T19:25:39.604Z,62.73
2022-10-04T19:28:07.848Z,62.35
2022-10-04T19:30:36.438Z,62.11
2022-10-04T19:33:09.041Z,61.33
2022-10-04T19:35:41.083Z,60.89
2022-10-04T19:38:25.130Z,60.59
2022-10-04T19:41:12.763Z,61.34
2022-10-04T19:43:42.554Z,61.53
2022-10-04T19:46:23.139Z,61.29
2022-10-04T19:48:52.632Z,60.61
2022-10-04T19:51:20.924Z,60.71
2022-10-04T19:53:51.226Z,60.72
2022-10-04T19:56:21.472Z,60.80
2022-10-04T19:59:06.037Z,61.36
2022-10-04T20:01:36.677Z,61.25
2022-10-04T20:04:31.977Z,61.45
2022-10-04T20:07:01.306Z,60.96
2022-10-04T20:09:41.636Z,61.24
2022-10-04T20:12:28.855Z,60.87
2022-10-04T20:15:32.771Z,62.16
2022-10-04T20:18:03.372Z,62.55
2022-10-04T20:20:43.766Z,62.77
2022-10-04T20:23:32.264Z,62.48
2022-10-04T20:26:01.516Z,62.25
2022-10-04T20:28:29.854Z,62.38
2022-10-04T20:30:59.707Z,62.41
2022-10-04T20:33:34.654Z,61.61
2022-10-04T20:36:08.755Z,61.48
2022-10-04T20:38:48.232Z,61.50
2022-10-04T20:41:28.557Z,61.69
2022-10-04T20:44:04.393Z,61.21
2022-10-04T20:46:51.018Z,61.91
2022-10-04T20:49:19.717Z,61.84
2022-10-04T20:51:48.798Z,61.59
2022-10-04T20:54:18.304Z,61.69
2022-10-04T20:56:50.570Z,61.57
2022-10-04T20:59:19.160Z,61.23
2022-10-04T21:02:09.587Z,61.50
2022-10-04T21:04:50.023Z,62.22
2022-10-04T21:07:20.039Z,61.74
2022-10-04T21:09:48.726Z,61.74
2022-10-04T21:12:35.742Z,61.71
2022-10-04T21:15:07.601Z,62.15
2022-10-04T21:17:36.899Z,62.65
2022-10-04T21:20:06.572Z,63.44
2022-10-04T21:22:35.402Z,63.07
2022-10-04T21:25:23.651Z,63.01
2022-10-04T21:27:52.465Z,63.58
2022-10-04T21:30:21.129Z,63.47
2022-10-04T21:32:49.404Z,63.65
2022-10-04T21:35:17.987Z,63.61
2022-10-04T21:37:47.189Z,63.67
2022-10-04T21:40:15.462Z,63.66
2022-10-04T21:42:43.945Z,63.78
2022-10-04T21:45:12.528Z,63.64
2022-10-04T21:47:40.703Z,63.59
2022-10-04T21:50:09.467Z,63.89
2022-10-04T21:52:38.180Z,63.77
2022-10-04T21:55:10.806Z,63.33
2022-10-04T21:57:39.648Z,64.03
2022-10-04T22:00:08.241Z,64.08
2022-10-04T22:02:41.183Z,63.82
2022-10-04T22:05:09.702Z,64.09
2022-10-04T22:07:37.979Z,64.17
2022-10-04T22:10:07.155Z,64.06
2022-10-04T22:12:35.454Z,63.91
2022-10-04T22:15:04.551Z,63.70
2022-10-04T22:17:33.442Z,63.75
2022-10-04T22:20:01.629Z,64.09
2022-10-04T22:22:31.656Z,64.44
2022-10-04T22:25:01.557Z,64.41
2022-10-04T22:27:30.540Z,64.81
2022-10-04T22:30:00.052Z,64.76
2022-10-04T22:32:28.942Z,64.97
2022-10-04T22:35:02.055Z,65.09
2022-10-04T22:37:31.640Z,65.77
2022-10-04T22:39:59.917Z,65.84
2022-10-04T22:42:31.587Z,65.46
2022-10-04T22:45:01.797Z,65.10
2022-10-04T22:47:31.918Z,65.11
2022-10-04T22:50:00.214Z,65.09
2022-10-04T22:52:30.256Z,64.89
2022-10-04T22:55:02.365Z,65.09
2022-10-04T22:57:31.520Z,65.11
2022-10-04T22:59:59.753Z,65.62
2022-10-04T23:02:30.461Z,65.46
2022-10-04T23:05:02.413Z,65.27
2022-10-04T23:07:34.820Z,65.16
2022-10-04T23:10:06.783Z,65.77
2022-10-04T23:12:35.069Z,66.05
2022-10-04T23:15:06.525Z,66.33
2022-10-04T23:17:37.330Z,65.81
2022-10-04T23:20:14.133Z,65.78
2022-10-04T23:22:45.262Z,65.94
2022-10-04T23:25:15.497Z,66.34
2022-10-04T23:27:45.312Z,66.12
2022-10-04T23:30:16.026Z,67.22
2022-10-04T23:32:45.141Z,67.39
2022-10-04T23:35:19.027Z,68.26
2022-10-04T23:37:47.580Z,68.77
2022-10-04T23:40:17.859Z,68.63
2022-10-04T23:42:48.702Z,69.61
2022-10-04T23:45:19.472Z,69.62
2022-10-04T23:47:50.035Z,70.17
2022-10-04T23:50:23.393Z,71.19
2022-10-04T23:52:52.759Z,70.71
2022-10-04T23:55:23.121Z,70.52
2022-10-04T23:57:51.567Z,70.34
